»·PEaware :: N5MW CYYJ-KHIO

N5MW :: CYYJ-KHIO

FLIGHT INFORMATION

Flight Status: Arrived
Operator: Privately registered:
United States
More flights under this callsign
Pilot: Tanner C. (11250)
Aircraft: PILATUS PC-12 EAGLE
(PC12)
More flights by this aircraft type
Origin: CYYJ Victoria Intl
Canada
Destination: KHIO Portland-Hillsboro
United States
More flights between these airports :: More routes between these airports
Route: +ARRIE T263 LOATH HOGUM NOONS
File this flight plan on PilotEdge
Remarks:
Altitude:
(Current/Filed)
19,000ft
Speed:
(Current/Filed)
300kts
Departed: 06-Feb-18 10:39 PM
Arrived: 06-Feb-18 11:42 PM
Distance/Time
Traveled:
187nm/1:03
Distance/Time
To Go:
Arrived

Flight Plot

Page will automatically refresh every two minutes.

Flight plan parsing failed; only flown route is shown


Map Options




Map Legend


Flown Route
Filed Route
Departure Airport
Arrival Airport
Navaid (VOR, NDB)
Fix

Horizontal Profiles

Position Reports

Time Latitude Longitude Heading Altitude Ground
Speed
06-Feb-18 22:34 48.654815 -123.427567 182 86ft 0kts
06-Feb-18 22:35 48.654815 -123.427567 182 86ft 0kts
06-Feb-18 22:36 48.654815 -123.427567 182 86ft 0kts
06-Feb-18 22:37 48.654815 -123.427567 182 86ft 0kts
06-Feb-18 22:38 48.654815 -123.427567 182 86ft 0kts
06-Feb-18 22:39 48.654815 -123.427567 182 86ft 0kts
06-Feb-18 22:40 48.654815 -123.427567 182 86ft 0kts
06-Feb-18 22:41 48.654815 -123.427567 182 86ft 0kts
06-Feb-18 22:42 48.654815 -123.427567 182 86ft 0kts
06-Feb-18 22:43 48.653805 -123.429288 245 79ft 18kts
06-Feb-18 22:44 48.652934 -123.432257 251 76ft 0kts
06-Feb-18 22:45 48.652076 -123.432882 155 74ft 37kts
06-Feb-18 22:46 48.637112 -123.420068 151 758ft 103kts
06-Feb-18 22:47 48.613419 -123.413429 178 1956ft 140kts
06-Feb-18 22:48 48.584699 -123.414964 182 3614ft 141kts
06-Feb-18 22:49 48.552026 -123.417140 187 5365ft 148kts
06-Feb-18 22:50 48.517660 -123.420185 190 6738ft 164kts
06-Feb-18 22:51 48.479553 -123.423822 191 7988ft 177kts
06-Feb-18 22:52 48.438941 -123.427435 191 9262ft 186kts
06-Feb-18 22:53 48.392878 -123.431323 193 10679ft 191kts
06-Feb-18 22:54 48.345352 -123.435808 192 11950ft 201kts
06-Feb-18 22:55 48.299800 -123.439621 192 13158ft 205kts
06-Feb-18 22:56 48.249659 -123.443900 192 14410ft 209kts
06-Feb-18 22:57 48.198027 -123.448338 192 15619ft 213kts
06-Feb-18 22:58 48.142587 -123.453139 192 16688ft 225kts
06-Feb-18 22:59 48.074121 -123.459280 191 16822ft 265kts
06-Feb-18 23:00 48.001574 -123.465324 190 17009ft 274kts
06-Feb-18 23:01 47.933814 -123.470742 192 18380ft 244kts
06-Feb-18 23:02 47.873852 -123.475449 189 19363ft 250kts
06-Feb-18 23:03 47.820281 -123.475257 188 19357ft 248kts
06-Feb-18 23:04 47.761724 -123.474765 187 19371ft 272kts
06-Feb-18 23:05 47.703587 -123.474317 187 19369ft 287kts
06-Feb-18 23:06 47.646465 -123.473819 186 19368ft 292kts
06-Feb-18 23:07 47.593555 -123.473383 186 19368ft 294kts
06-Feb-18 23:08 47.531696 -123.472895 186 19369ft 296kts
06-Feb-18 23:09 47.471000 -123.472423 186 19369ft 296kts
06-Feb-18 23:10 47.417906 -123.472029 186 19370ft 296kts
06-Feb-18 23:11 47.361143 -123.471580 186 19370ft 297kts
06-Feb-18 23:12 47.304890 -123.471144 186 19371ft 297kts
06-Feb-18 23:13 47.247585 -123.470702 186 19371ft 297kts
06-Feb-18 23:14 47.189168 -123.470257 186 19372ft 297kts
06-Feb-18 23:15 47.129201 -123.468391 171 19373ft 304kts
06-Feb-18 23:16 47.075302 -123.438943 162 19373ft 307kts
06-Feb-18 23:17 47.021134 -123.408590 163 19373ft 307kts
06-Feb-18 23:18 46.965447 -123.377841 163 19392ft 307kts
06-Feb-18 23:19 46.906603 -123.345464 163 19401ft 307kts
06-Feb-18 23:20 46.860085 -123.319931 163 19394ft 306kts
06-Feb-18 23:21 46.813703 -123.294502 163 19394ft 306kts
06-Feb-18 23:22 46.767315 -123.269113 163 19412ft 305kts
06-Feb-18 23:23 46.720516 -123.243559 163 19421ft 306kts
06-Feb-18 23:24 46.671278 -123.216726 163 19423ft 306kts
06-Feb-18 23:24 46.630196 -123.194376 163 19424ft 306kts
06-Feb-18 23:26 46.571972 -123.162765 163 19424ft 306kts
06-Feb-18 23:27 46.522257 -123.135825 163 19425ft 306kts
06-Feb-18 23:27 46.479729 -123.112824 163 19425ft 306kts
06-Feb-18 23:28 46.427627 -123.095561 177 19427ft 301kts
06-Feb-18 23:29 46.371832 -123.084846 177 19426ft 301kts
06-Feb-18 23:30 46.314143 -123.075067 185 19003ft 310kts
06-Feb-18 23:31 46.253003 -123.078060 189 17766ft 298kts
06-Feb-18 23:32 46.196047 -123.082661 189 16196ft 287kts
06-Feb-18 23:33 46.139613 -123.087351 188 14648ft 288kts
06-Feb-18 23:34 46.067605 -123.093227 187 12667ft 285kts
06-Feb-18 23:35 45.990338 -123.099533 187 10518ft 281kts
06-Feb-18 23:36 45.924030 -123.104928 186 8640ft 275kts
06-Feb-18 23:37 45.866373 -123.109493 185 6991ft 258kts
06-Feb-18 23:38 45.818010 -123.113208 185 5744ft 241kts
06-Feb-18 23:39 45.770321 -123.117129 185 4564ft 231kts
06-Feb-18 23:40 45.721419 -123.123833 185 3494ft 197kts
06-Feb-18 23:41 45.685146 -123.101960 145 3434ft 161kts
06-Feb-18 23:42 45.660770 -123.076429 143 2920ft 123kts
06-Feb-18 23:43 45.637077 -123.051478 143 2360ft 120kts
06-Feb-18 23:44 45.613077 -123.026199 143 1774ft 119kts
06-Feb-18 23:45 45.589023 -123.000891 143 1188ft 119kts
06-Feb-18 23:46 45.565639 -122.976322 142 550ft 117kts
06-Feb-18 23:47 45.545182 -122.954913 134 201ft 49kts
06-Feb-18 23:48 45.542475 -122.956040 235 197ft 3kts
06-Feb-18 23:49 45.542429 -122.956098 203 197ft 0kts
06-Feb-18 23:50 45.542429 -122.956098 203 197ft 0kts
06-Feb-18 23:51 45.542429 -122.956098 203 197ft 0kts
06-Feb-18 23:52 45.542429 -122.956098 203 197ft 0kts

Navigation Log

Ident Type
Flight plan parsing failed, navigation log unavailable